Kimmswick, Missouri
Current Conditions -  °F | °C
As of 5:53 PM on Friday 28 Nov 2014 (Local Time) from KCPS Reporting Station
Clear Clear  
Wind Chill: 41°   Ceiling: Unl
Heat Index: 45°   Visibility: 10mi
Dew Point: 34°   Wind: 7mph
Humidity: 65%   Direction: 160°SSE
Pressure: 29.96"   Gusts: NA
Location:  38.37°N, 90.36°W
Report Text: KCPS 282353Z 16006KT 10SM CLR 07/01 A2996 RMK AO2 SLP148 T00720011 10100 20067 55005
Loading
Personal Weather Stations






























Interactive Weather Map New forecast layout! Learn more

10-Day Weather Forecast

Advertisements
Track Severe Weather on mobile